sensor_id;sensor_type;location;lat;lon;timestamp;temperature;humidity
49321;DHT22;35817;44.498;0.166;2022-12-07T00:00:27;8.90;88.30
49321;DHT22;35817;44.498;0.166;2022-12-07T00:02:53;8.90;88.40
49321;DHT22;35817;44.498;0.166;2022-12-07T00:05:19;8.90;88.40
49321;DHT22;35817;44.498;0.166;2022-12-07T00:07:44;9.00;88.50
49321;DHT22;35817;44.498;0.166;2022-12-07T00:10:10;8.90;88.50
49321;DHT22;35817;44.498;0.166;2022-12-07T00:12:36;9.00;88.60
49321;DHT22;35817;44.498;0.166;2022-12-07T00:15:02;9.00;88.50
49321;DHT22;35817;44.498;0.166;2022-12-07T00:17:28;9.00;88.60
49321;DHT22;35817;44.498;0.166;2022-12-07T00:19:53;9.00;88.70
49321;DHT22;35817;44.498;0.166;2022-12-07T00:22:19;9.00;88.80
49321;DHT22;35817;44.498;0.166;2022-12-07T00:24:45;8.90;89.00
49321;DHT22;35817;44.498;0.166;2022-12-07T00:27:10;8.90;89.40
49321;DHT22;35817;44.498;0.166;2022-12-07T00:29:36;8.90;90.00
49321;DHT22;35817;44.498;0.166;2022-12-07T00:32:03;8.80;89.50
49321;DHT22;35817;44.498;0.166;2022-12-07T00:34:30;8.80;89.60
49321;DHT22;35817;44.498;0.166;2022-12-07T00:36:55;8.80;89.80
49321;DHT22;35817;44.498;0.166;2022-12-07T00:39:21;8.80;90.00
49321;DHT22;35817;44.498;0.166;2022-12-07T00:41:47;8.80;90.10
49321;DHT22;35817;44.498;0.166;2022-12-07T00:44:13;8.80;90.30
49321;DHT22;35817;44.498;0.166;2022-12-07T00:46:38;8.70;90.40
49321;DHT22;35817;44.498;0.166;2022-12-07T00:49:04;8.70;90.60
49321;DHT22;35817;44.498;0.166;2022-12-07T00:51:30;8.70;90.80
49321;DHT22;35817;44.498;0.166;2022-12-07T00:53:55;8.60;90.80
49321;DHT22;35817;44.498;0.166;2022-12-07T00:56:26;8.60;90.90
49321;DHT22;35817;44.498;0.166;2022-12-07T00:59:03;8.60;91.00
49321;DHT22;35817;44.498;0.166;2022-12-07T01:01:31;8.60;91.20
49321;DHT22;35817;44.498;0.166;2022-12-07T01:03:58;8.60;91.40
49321;DHT22;35817;44.498;0.166;2022-12-07T01:06:25;8.50;91.40
49321;DHT22;35817;44.498;0.166;2022-12-07T01:08:51;8.50;91.50
49321;DHT22;35817;44.498;0.166;2022-12-07T01:11:19;8.50;91.50
49321;DHT22;35817;44.498;0.166;2022-12-07T01:13:45;8.50;91.60
49321;DHT22;35817;44.498;0.166;2022-12-07T01:16:14;8.50;91.60
49321;DHT22;35817;44.498;0.166;2022-12-07T01:18:40;8.40;91.70
49321;DHT22;35817;44.498;0.166;2022-12-07T01:23:35;8.40;91.90
49321;DHT22;35817;44.498;0.166;2022-12-07T01:26:05;8.30;92.00
49321;DHT22;35817;44.498;0.166;2022-12-07T01:28:31;8.30;92.00
49321;DHT22;35817;44.498;0.166;2022-12-07T01:31:00;8.30;92.00
49321;DHT22;35817;44.498;0.166;2022-12-07T01:33:34;8.30;92.10
49321;DHT22;35817;44.498;0.166;2022-12-07T01:36:12;8.30;92.20
49321;DHT22;35817;44.498;0.166;2022-12-07T01:38:38;8.30;92.20
49321;DHT22;35817;44.498;0.166;2022-12-07T01:41:04;8.30;92.30
49321;DHT22;35817;44.498;0.166;2022-12-07T01:43:32;8.20;92.30
49321;DHT22;35817;44.498;0.166;2022-12-07T01:45:59;8.20;92.40
49321;DHT22;35817;44.498;0.166;2022-12-07T01:48:29;8.20;92.50
49321;DHT22;35817;44.498;0.166;2022-12-07T01:51:01;8.20;92.50
49321;DHT22;35817;44.498;0.166;2022-12-07T01:53:30;8.20;92.60
49321;DHT22;35817;44.498;0.166;2022-12-07T01:55:56;8.20;92.60
49321;DHT22;35817;44.498;0.166;2022-12-07T01:58:24;8.10;92.70
49321;DHT22;35817;44.498;0.166;2022-12-07T02:00:50;8.10;92.80
49321;DHT22;35817;44.498;0.166;2022-12-07T02:03:29;8.10;92.90
49321;DHT22;35817;44.498;0.166;2022-12-07T02:05:57;8.00;92.90
49321;DHT22;35817;44.498;0.166;2022-12-07T02:08:24;8.00;93.10
49321;DHT22;35817;44.498;0.166;2022-12-07T02:10:50;7.90;93.10
49321;DHT22;35817;44.498;0.166;2022-12-07T02:13:22;7.90;93.10
49321;DHT22;35817;44.498;0.166;2022-12-07T02:16:21;7.80;93.20
49321;DHT22;35817;44.498;0.166;2022-12-07T02:19:26;7.80;93.40
49321;DHT22;35817;44.498;0.166;2022-12-07T02:27:36;7.60;93.80
49321;DHT22;35817;44.498;0.166;2022-12-07T02:30:13;7.60;93.90
49321;DHT22;35817;44.498;0.166;2022-12-07T02:32:44;7.50;94.00
49321;DHT22;35817;44.498;0.166;2022-12-07T02:37:43;7.50;94.30
49321;DHT22;35817;44.498;0.166;2022-12-07T02:40:29;7.40;94.30
49321;DHT22;35817;44.498;0.166;2022-12-07T02:43:07;7.40;94.40
49321;DHT22;35817;44.498;0.166;2022-12-07T02:45:36;7.30;94.60
49321;DHT22;35817;44.498;0.166;2022-12-07T02:48:03;7.30;94.80
49321;DHT22;35817;44.498;0.166;2022-12-07T02:50:30;7.20;95.00
49321;DHT22;35817;44.498;0.166;2022-12-07T02:52:56;7.10;95.20
49321;DHT22;35817;44.498;0.166;2022-12-07T02:55:28;7.00;95.40
49321;DHT22;35817;44.498;0.166;2022-12-07T02:58:12;6.90;95.50
49321;DHT22;35817;44.498;0.166;2022-12-07T03:00:52;6.70;95.70
49321;DHT22;35817;44.498;0.166;2022-12-07T03:03:20;6.60;96.00
49321;DHT22;35817;44.498;0.166;2022-12-07T03:08:44;6.30;96.60
49321;DHT22;35817;44.498;0.166;2022-12-07T03:11:16;6.20;96.50
49321;DHT22;35817;44.498;0.166;2022-12-07T03:13:59;6.10;96.60
49321;DHT22;35817;44.498;0.166;2022-12-07T03:19:11;5.90;97.20
49321;DHT22;35817;44.498;0.166;2022-12-07T03:21:39;5.80;97.40
49321;DHT22;35817;44.498;0.166;2022-12-07T03:24:14;5.60;97.50
49321;DHT22;35817;44.498;0.166;2022-12-07T03:26:41;5.50;97.70
49321;DHT22;35817;44.498;0.166;2022-12-07T03:29:10;5.40;97.70
49321;DHT22;35817;44.498;0.166;2022-12-07T03:31:38;5.40;97.90
49321;DHT22;35817;44.498;0.166;2022-12-07T03:34:14;5.30;98.00
49321;DHT22;35817;44.498;0.166;2022-12-07T03:39:19;5.10;98.30
49321;DHT22;35817;44.498;0.166;2022-12-07T03:41:47;5.00;98.40
49321;DHT22;35817;44.498;0.166;2022-12-07T03:44:13;4.90;98.40
49321;DHT22;35817;44.498;0.166;2022-12-07T03:54:26;4.70;98.80
49321;DHT22;35817;44.498;0.166;2022-12-07T03:56:54;4.70;98.90
49321;DHT22;35817;44.498;0.166;2022-12-07T03:59:20;4.60;98.90
49321;DHT22;35817;44.498;0.166;2022-12-07T04:01:51;4.60;99.10
49321;DHT22;35817;44.498;0.166;2022-12-07T04:04:17;4.50;99.10
49321;DHT22;35817;44.498;0.166;2022-12-07T04:06:42;4.50;99.20
49321;DHT22;35817;44.498;0.166;2022-12-07T04:09:08;4.50;99.40
49321;DHT22;35817;44.498;0.166;2022-12-07T04:11:34;4.40;99.40
49321;DHT22;35817;44.498;0.166;2022-12-07T04:13:59;4.40;99.60
49321;DHT22;35817;44.498;0.166;2022-12-07T04:16:47;4.30;99.50
49321;DHT22;35817;44.498;0.166;2022-12-07T04:19:13;4.30;99.70
49321;DHT22;35817;44.498;0.166;2022-12-07T04:21:39;4.20;99.60
49321;DHT22;35817;44.498;0.166;2022-12-07T04:24:05;4.20;99.70
49321;DHT22;35817;44.498;0.166;2022-12-07T04:26:31;4.10;99.70
49321;DHT22;35817;44.498;0.166;2022-12-07T04:28:56;4.10;99.70
49321;DHT22;35817;44.498;0.166;2022-12-07T04:31:22;4.00;99.80
49321;DHT22;35817;44.498;0.166;2022-12-07T04:33:47;4.00;99.90
49321;DHT22;35817;44.498;0.166;2022-12-07T04:36:13;3.80;99.90
49321;DHT22;35817;44.498;0.166;2022-12-07T04:38:39;3.80;99.90
49321;DHT22;35817;44.498;0.166;2022-12-07T04:41:05;3.70;99.90
49321;DHT22;35817;44.498;0.166;2022-12-07T04:43:31;3.60;99.90
49321;DHT22;35817;44.498;0.166;2022-12-07T04:45:56;3.50;99.90
49321;DHT22;35817;44.498;0.166;2022-12-07T04:48:22;3.40;99.90
49321;DHT22;35817;44.498;0.166;2022-12-07T04:50:48;3.40;99.90
49321;DHT22;35817;44.498;0.166;2022-12-07T04:53:15;3.30;99.90
49321;DHT22;35817;44.498;0.166;2022-12-07T04:55:40;3.30;99.90
49321;DHT22;35817;44.498;0.166;2022-12-07T04:58:06;3.20;99.90
49321;DHT22;35817;44.498;0.166;2022-12-07T05:00:32;3.20;99.90
49321;DHT22;35817;44.498;0.166;2022-12-07T05:02:57;3.10;99.90
49321;DHT22;35817;44.498;0.166;2022-12-07T05:05:23;3.00;99.90
49321;DHT22;35817;44.498;0.166;2022-12-07T05:07:49;3.00;99.90
49321;DHT22;35817;44.498;0.166;2022-12-07T05:10:15;3.00;99.90
49321;DHT22;35817;44.498;0.166;2022-12-07T05:12:40;2.90;99.90
49321;DHT22;35817;44.498;0.166;2022-12-07T05:15:06;2.90;99.90
49321;DHT22;35817;44.498;0.166;2022-12-07T05:17:32;2.90;99.90
49321;DHT22;35817;44.498;0.166;2022-12-07T05:19:57;2.80;99.90
49321;DHT22;35817;44.498;0.166;2022-12-07T05:22:23;2.80;99.90
49321;DHT22;35817;44.498;0.166;2022-12-07T05:24:54;2.70;99.90
49321;DHT22;35817;44.498;0.166;2022-12-07T05:27:20;2.70;99.90
49321;DHT22;35817;44.498;0.166;2022-12-07T05:29:46;2.60;99.90
49321;DHT22;35817;44.498;0.166;2022-12-07T05:32:11;2.60;99.90
49321;DHT22;35817;44.498;0.166;2022-12-07T05:34:37;2.60;99.90
49321;DHT22;35817;44.498;0.166;2022-12-07T05:37:02;2.50;99.90
49321;DHT22;35817;44.498;0.166;2022-12-07T05:39:28;2.50;99.90
49321;DHT22;35817;44.498;0.166;2022-12-07T05:41:54;2.50;99.90
49321;DHT22;35817;44.498;0.166;2022-12-07T05:44:38;2.50;99.90
49321;DHT22;35817;44.498;0.166;2022-12-07T05:47:04;2.40;99.90
49321;DHT22;35817;44.498;0.166;2022-12-07T05:49:29;2.40;99.90
49321;DHT22;35817;44.498;0.166;2022-12-07T05:51:55;2.30;99.90
49321;DHT22;35817;44.498;0.166;2022-12-07T05:54:21;2.30;99.90
49321;DHT22;35817;44.498;0.166;2022-12-07T05:56:46;2.30;99.90
49321;DHT22;35817;44.498;0.166;2022-12-07T05:59:12;2.20;99.90
49321;DHT22;35817;44.498;0.166;2022-12-07T06:01:54;2.20;99.90
49321;DHT22;35817;44.498;0.166;2022-12-07T06:04:20;2.30;99.90
49321;DHT22;35817;44.498;0.166;2022-12-07T06:06:46;2.30;99.90
49321;DHT22;35817;44.498;0.166;2022-12-07T06:09:11;2.30;99.90
49321;DHT22;35817;44.498;0.166;2022-12-07T06:11:38;2.30;99.90
49321;DHT22;35817;44.498;0.166;2022-12-07T06:14:22;2.30;99.90
49321;DHT22;35817;44.498;0.166;2022-12-07T06:16:48;2.40;99.90
49321;DHT22;35817;44.498;0.166;2022-12-07T06:19:13;2.40;99.90
49321;DHT22;35817;44.498;0.166;2022-12-07T06:21:39;2.50;99.90
49321;DHT22;35817;44.498;0.166;2022-12-07T06:24:05;2.50;99.90
49321;DHT22;35817;44.498;0.166;2022-12-07T06:26:30;2.60;99.90
49321;DHT22;35817;44.498;0.166;2022-12-07T06:28:56;2.60;99.90
49321;DHT22;35817;44.498;0.166;2022-12-07T06:31:22;2.70;99.90
49321;DHT22;35817;44.498;0.166;2022-12-07T06:33:47;2.80;99.90
49321;DHT22;35817;44.498;0.166;2022-12-07T06:36:13;2.90;99.90
49321;DHT22;35817;44.498;0.166;2022-12-07T06:38:38;2.90;99.90
49321;DHT22;35817;44.498;0.166;2022-12-07T06:41:04;2.90;99.90
49321;DHT22;35817;44.498;0.166;2022-12-07T06:43:30;2.90;99.90
49321;DHT22;35817;44.498;0.166;2022-12-07T06:45:55;3.00;99.90
49321;DHT22;35817;44.498;0.166;2022-12-07T06:48:21;3.10;99.90
49321;DHT22;35817;44.498;0.166;2022-12-07T06:50:47;3.10;99.90
49321;DHT22;35817;44.498;0.166;2022-12-07T06:53:13;3.20;99.90
49321;DHT22;35817;44.498;0.166;2022-12-07T06:55:38;3.20;99.90
49321;DHT22;35817;44.498;0.166;2022-12-07T06:58:04;3.30;99.90
49321;DHT22;35817;44.498;0.166;2022-12-07T07:00:30;3.30;99.90
49321;DHT22;35817;44.498;0.166;2022-12-07T07:02:55;3.40;99.90
49321;DHT22;35817;44.498;0.166;2022-12-07T07:05:21;3.50;99.90
49321;DHT22;35817;44.498;0.166;2022-12-07T07:07:48;3.50;99.90
49321;DHT22;35817;44.498;0.166;2022-12-07T07:10:13;3.50;99.90
49321;DHT22;35817;44.498;0.166;2022-12-07T07:12:39;3.50;99.90
49321;DHT22;35817;44.498;0.166;2022-12-07T07:15:04;3.50;99.90
49321;DHT22;35817;44.498;0.166;2022-12-07T07:17:30;3.50;99.90
49321;DHT22;35817;44.498;0.166;2022-12-07T07:19:56;3.50;99.90
49321;DHT22;35817;44.498;0.166;2022-12-07T07:22:21;3.50;99.90
49321;DHT22;35817;44.498;0.166;2022-12-07T07:24:49;3.50;99.90
49321;DHT22;35817;44.498;0.166;2022-12-07T07:27:15;3.60;99.90
49321;DHT22;35817;44.498;0.166;2022-12-07T07:29:40;3.60;99.90
49321;DHT22;35817;44.498;0.166;2022-12-07T07:32:06;3.70;99.90
49321;DHT22;35817;44.498;0.166;2022-12-07T07:34:34;3.70;99.90
49321;DHT22;35817;44.498;0.166;2022-12-07T07:37:00;3.70;99.90
49321;DHT22;35817;44.498;0.166;2022-12-07T07:39:25;3.70;99.90
49321;DHT22;35817;44.498;0.166;2022-12-07T07:41:51;3.70;99.90
49321;DHT22;35817;44.498;0.166;2022-12-07T07:44:16;3.70;99.90
49321;DHT22;35817;44.498;0.166;2022-12-07T07:46:42;3.70;99.90
49321;DHT22;35817;44.498;0.166;2022-12-07T07:49:08;3.80;99.90
49321;DHT22;35817;44.498;0.166;2022-12-07T07:51:35;3.90;99.90
49321;DHT22;35817;44.498;0.166;2022-12-07T07:54:15;3.90;99.90
49321;DHT22;35817;44.498;0.166;2022-12-07T07:57:02;3.90;99.90
49321;DHT22;35817;44.498;0.166;2022-12-07T07:59:29;3.90;99.90
49321;DHT22;35817;44.498;0.166;2022-12-07T08:01:55;3.90;99.90
49321;DHT22;35817;44.498;0.166;2022-12-07T08:04:21;3.90;99.90
49321;DHT22;35817;44.498;0.166;2022-12-07T08:06:46;3.80;99.70
49321;DHT22;35817;44.498;0.166;2022-12-07T08:09:13;3.80;99.70
49321;DHT22;35817;44.498;0.166;2022-12-07T08:11:38;3.80;99.80
49321;DHT22;35817;44.498;0.166;2022-12-07T08:14:13;3.70;99.80
49321;DHT22;35817;44.498;0.166;2022-12-07T08:16:39;3.70;99.90
49321;DHT22;35817;44.498;0.166;2022-12-07T08:19:05;3.70;99.90
49321;DHT22;35817;44.498;0.166;2022-12-07T08:21:30;3.70;99.90
49321;DHT22;35817;44.498;0.166;2022-12-07T08:23:57;3.60;99.90
49321;DHT22;35817;44.498;0.166;2022-12-07T08:26:22;3.70;99.90
49321;DHT22;35817;44.498;0.166;2022-12-07T08:28:48;3.80;99.90
49321;DHT22;35817;44.498;0.166;2022-12-07T08:31:17;4.00;99.90
49321;DHT22;35817;44.498;0.166;2022-12-07T08:33:45;4.30;99.90
49321;DHT22;35817;44.498;0.166;2022-12-07T08:36:13;4.70;99.60
49321;DHT22;35817;44.498;0.166;2022-12-07T08:38:40;5.00;98.70
49321;DHT22;35817;44.498;0.166;2022-12-07T08:41:06;5.30;98.10
49321;DHT22;35817;44.498;0.166;2022-12-07T08:43:33;5.70;97.50
49321;DHT22;35817;44.498;0.166;2022-12-07T08:46:19;5.90;97.10
49321;DHT22;35817;44.498;0.166;2022-12-07T08:51:21;6.70;95.90
49321;DHT22;35817;44.498;0.166;2022-12-07T08:53:48;7.10;95.30
49321;DHT22;35817;44.498;0.166;2022-12-07T08:56:14;7.40;94.10
49321;DHT22;35817;44.498;0.166;2022-12-07T08:58:40;7.50;92.40
49321;DHT22;35817;44.498;0.166;2022-12-07T09:01:06;7.60;91.40
49321;DHT22;35817;44.498;0.166;2022-12-07T09:03:32;7.80;91.00
49321;DHT22;35817;44.498;0.166;2022-12-07T09:05:59;8.00;91.20
49321;DHT22;35817;44.498;0.166;2022-12-07T09:08:29;8.50;90.80
49321;DHT22;35817;44.498;0.166;2022-12-07T09:10:56;8.80;90.10
49321;DHT22;35817;44.498;0.166;2022-12-07T09:13:22;9.20;87.70
49321;DHT22;35817;44.498;0.166;2022-12-07T09:15:51;9.50;86.90
49321;DHT22;35817;44.498;0.166;2022-12-07T09:19:07;9.80;83.90
49321;DHT22;35817;44.498;0.166;2022-12-07T09:21:19;10.10;83.70
49321;DHT22;35817;44.498;0.166;2022-12-07T09:23:56;10.50;82.50
49321;DHT22;35817;44.498;0.166;2022-12-07T09:32:40;10.80;78.00
49321;DHT22;35817;44.498;0.166;2022-12-07T09:35:09;11.10;77.30
49321;DHT22;35817;44.498;0.166;2022-12-07T09:37:36;11.40;76.50
49321;DHT22;35817;44.498;0.166;2022-12-07T09:40:03;11.60;75.50
49321;DHT22;35817;44.498;0.166;2022-12-07T09:52:26;12.60;71.00
49321;DHT22;35817;44.498;0.166;2022-12-07T09:57:32;13.20;68.20
49321;DHT22;35817;44.498;0.166;2022-12-07T10:03:12;13.70;66.90
49321;DHT22;35817;44.498;0.166;2022-12-07T10:05:44;13.90;66.70
49321;DHT22;35817;44.498;0.166;2022-12-07T10:08:19;14.20;65.40
49321;DHT22;35817;44.498;0.166;2022-12-07T10:10:50;14.30;64.80
49321;DHT22;35817;44.498;0.166;2022-12-07T10:16:06;14.60;62.80
49321;DHT22;35817;44.498;0.166;2022-12-07T10:18:38;14.80;63.20
49321;DHT22;35817;44.498;0.166;2022-12-07T10:21:26;15.00;62.10
49321;DHT22;35817;44.498;0.166;2022-12-07T10:24:15;15.10;62.50
49321;DHT22;35817;44.498;0.166;2022-12-07T10:26:51;15.30;60.80
49321;DHT22;35817;44.498;0.166;2022-12-07T10:29:36;15.60;60.50
49321;DHT22;35817;44.498;0.166;2022-12-07T10:32:06;15.90;59.50
49321;DHT22;35817;44.498;0.166;2022-12-07T10:34:49;15.70;59.60
49321;DHT22;35817;44.498;0.166;2022-12-07T10:37:17;15.40;58.80
49321;DHT22;35817;44.498;0.166;2022-12-07T10:39:51;15.10;59.60
49321;DHT22;35817;44.498;0.166;2022-12-07T10:42:18;15.40;59.40
49321;DHT22;35817;44.498;0.166;2022-12-07T10:44:45;15.70;58.10
49321;DHT22;35817;44.498;0.166;2022-12-07T10:55:20;17.00;55.90
49321;DHT22;35817;44.498;0.166;2022-12-07T11:00:39;17.10;54.60
49321;DHT22;35817;44.498;0.166;2022-12-07T11:06:29;17.60;54.10
49321;DHT22;35817;44.498;0.166;2022-12-07T11:18:45;17.90;52.80
49321;DHT22;35817;44.498;0.166;2022-12-07T11:21:19;18.30;52.30
49321;DHT22;35817;44.498;0.166;2022-12-07T11:34:16;18.30;51.00
49321;DHT22;35817;44.498;0.166;2022-12-07T11:36:48;18.40;50.70
49321;DHT22;35817;44.498;0.166;2022-12-07T11:41:41;18.30;51.00
49321;DHT22;35817;44.498;0.166;2022-12-07T11:49:45;18.70;50.90
49321;DHT22;35817;44.498;0.166;2022-12-07T11:52:18;18.90;50.10
49321;DHT22;35817;44.498;0.166;2022-12-07T11:54:46;19.20;50.30
49321;DHT22;35817;44.498;0.166;2022-12-07T12:00:17;19.50;48.50
49321;DHT22;35817;44.498;0.166;2022-12-07T12:02:58;19.40;49.40
49321;DHT22;35817;44.498;0.166;2022-12-07T12:05:26;19.20;49.20
49321;DHT22;35817;44.498;0.166;2022-12-07T12:07:54;18.90;49.80
49321;DHT22;35817;44.498;0.166;2022-12-07T12:10:27;18.40;50.20
49321;DHT22;35817;44.498;0.166;2022-12-07T12:13:06;18.40;50.60
49321;DHT22;35817;44.498;0.166;2022-12-07T12:21:17;18.30;50.60
49321;DHT22;35817;44.498;0.166;2022-12-07T12:23:55;18.30;50.70
49321;DHT22;35817;44.498;0.166;2022-12-07T12:26:23;18.20;50.70
49321;DHT22;35817;44.498;0.166;2022-12-07T12:28:51;18.30;51.00
49321;DHT22;35817;44.498;0.166;2022-12-07T12:33:44;18.40;50.50
49321;DHT22;35817;44.498;0.166;2022-12-07T12:38:50;18.40;51.30
49321;DHT22;35817;44.498;0.166;2022-12-07T12:44:01;18.60;49.90
49321;DHT22;35817;44.498;0.166;2022-12-07T12:49:41;18.40;50.40
49321;DHT22;35817;44.498;0.166;2022-12-07T12:51:51;18.20;50.70
49321;DHT22;35817;44.498;0.166;2022-12-07T12:54:21;18.10;51.20
49321;DHT22;35817;44.498;0.166;2022-12-07T12:59:55;18.20;51.40
49321;DHT22;35817;44.498;0.166;2022-12-07T13:02:24;18.50;51.10
49321;DHT22;35817;44.498;0.166;2022-12-07T13:04:55;18.60;51.10
49321;DHT22;35817;44.498;0.166;2022-12-07T13:10:20;19.00;50.40
49321;DHT22;35817;44.498;0.166;2022-12-07T13:36:51;20.30;48.60
49321;DHT22;35817;44.498;0.166;2022-12-07T13:39:46;20.60;48.10
49321;DHT22;35817;44.498;0.166;2022-12-07T13:48:49;19.70;49.80
49321;DHT22;35817;44.498;0.166;2022-12-07T13:59:57;21.50;46.70
49321;DHT22;35817;44.498;0.166;2022-12-07T14:02:53;21.40;47.10
49321;DHT22;35817;44.498;0.166;2022-12-07T14:05:25;21.70;46.60
49321;DHT22;35817;44.498;0.166;2022-12-07T14:15:51;22.10;45.60
49321;DHT22;35817;44.498;0.166;2022-12-07T14:18:27;21.90;45.70
49321;DHT22;35817;44.498;0.166;2022-12-07T14:21:04;21.50;46.30
49321;DHT22;35817;44.498;0.166;2022-12-07T14:23:30;20.90;46.50
49321;DHT22;35817;44.498;0.166;2022-12-07T14:33:36;17.80;49.30
49321;DHT22;35817;44.498;0.166;2022-12-07T14:35:47;16.30;51.70
49321;DHT22;35817;44.498;0.166;2022-12-07T14:38:25;15.50;53.30
49321;DHT22;35817;44.498;0.166;2022-12-07T14:40:52;14.90;54.40
49321;DHT22;35817;44.498;0.166;2022-12-07T14:43:36;14.40;55.20
49321;DHT22;35817;44.498;0.166;2022-12-07T14:46:01;14.10;55.60
49321;DHT22;35817;44.498;0.166;2022-12-07T14:48:28;13.70;56.80
49321;DHT22;35817;44.498;0.166;2022-12-07T14:50:53;13.40;57.50
49321;DHT22;35817;44.498;0.166;2022-12-07T14:53:21;13.10;58.20
49321;DHT22;35817;44.498;0.166;2022-12-07T14:55:51;12.90;58.50
49321;DHT22;35817;44.498;0.166;2022-12-07T14:58:17;12.70;59.50
49321;DHT22;35817;44.498;0.166;2022-12-07T15:00:42;12.30;60.50
49321;DHT22;35817;44.498;0.166;2022-12-07T15:03:08;12.10;61.10
49321;DHT22;35817;44.498;0.166;2022-12-07T15:05:34;11.90;61.60
49321;DHT22;35817;44.498;0.166;2022-12-07T15:08:08;11.70;61.60
49321;DHT22;35817;44.498;0.166;2022-12-07T15:10:34;11.50;62.40
49321;DHT22;35817;44.498;0.166;2022-12-07T15:13:02;11.20;63.20
49321;DHT22;35817;44.498;0.166;2022-12-07T15:15:50;11.10;63.60
49321;DHT22;35817;44.498;0.166;2022-12-07T15:18:16;10.90;63.70
49321;DHT22;35817;44.498;0.166;2022-12-07T15:20:42;10.80;63.90
49321;DHT22;35817;44.498;0.166;2022-12-07T15:23:10;10.70;64.30
49321;DHT22;35817;44.498;0.166;2022-12-07T15:25:36;10.60;64.50
49321;DHT22;35817;44.498;0.166;2022-12-07T15:28:01;10.40;64.90
49321;DHT22;35817;44.498;0.166;2022-12-07T15:30:27;10.30;65.50
49321;DHT22;35817;44.498;0.166;2022-12-07T15:32:53;10.20;66.20
49321;DHT22;35817;44.498;0.166;2022-12-07T15:35:19;10.00;66.40
49321;DHT22;35817;44.498;0.166;2022-12-07T15:37:44;9.90;67.60
49321;DHT22;35817;44.498;0.166;2022-12-07T15:40:10;9.70;68.00
49321;DHT22;35817;44.498;0.166;2022-12-07T15:42:36;9.70;68.10
49321;DHT22;35817;44.498;0.166;2022-12-07T15:45:02;9.60;68.70
49321;DHT22;35817;44.498;0.166;2022-12-07T15:47:35;9.50;69.60
49321;DHT22;35817;44.498;0.166;2022-12-07T15:50:02;9.40;69.80
49321;DHT22;35817;44.498;0.166;2022-12-07T15:52:28;9.30;70.30
49321;DHT22;35817;44.498;0.166;2022-12-07T15:54:54;9.20;71.00
49321;DHT22;35817;44.498;0.166;2022-12-07T15:57:19;9.10;71.20
49321;DHT22;35817;44.498;0.166;2022-12-07T15:59:45;9.00;71.50
49321;DHT22;35817;44.498;0.166;2022-12-07T16:02:10;9.00;71.70
49321;DHT22;35817;44.498;0.166;2022-12-07T16:04:36;8.90;72.80
49321;DHT22;35817;44.498;0.166;2022-12-07T16:07:02;8.80;72.90
49321;DHT22;35817;44.498;0.166;2022-12-07T16:09:27;8.70;72.70
49321;DHT22;35817;44.498;0.166;2022-12-07T16:11:53;8.60;73.00
49321;DHT22;35817;44.498;0.166;2022-12-07T16:14:19;8.50;73.50
49321;DHT22;35817;44.498;0.166;2022-12-07T16:16:45;8.40;73.70
49321;DHT22;35817;44.498;0.166;2022-12-07T16:19:10;8.40;74.10
49321;DHT22;35817;44.498;0.166;2022-12-07T16:21:36;8.30;74.10
49321;DHT22;35817;44.498;0.166;2022-12-07T16:24:02;8.20;74.20
49321;DHT22;35817;44.498;0.166;2022-12-07T16:26:28;8.10;74.10
49321;DHT22;35817;44.498;0.166;2022-12-07T16:28:53;8.00;74.20
49321;DHT22;35817;44.498;0.166;2022-12-07T16:31:22;8.00;74.60
49321;DHT22;35817;44.498;0.166;2022-12-07T16:33:48;7.90;75.00
49321;DHT22;35817;44.498;0.166;2022-12-07T16:36:14;7.80;75.00
49321;DHT22;35817;44.498;0.166;2022-12-07T16:38:42;7.80;75.40
49321;DHT22;35817;44.498;0.166;2022-12-07T16:41:08;7.80;75.80
49321;DHT22;35817;44.498;0.166;2022-12-07T16:43:34;7.70;76.10
49321;DHT22;35817;44.498;0.166;2022-12-07T16:46:00;7.60;76.00
49321;DHT22;35817;44.498;0.166;2022-12-07T16:48:26;7.50;75.90
49321;DHT22;35817;44.498;0.166;2022-12-07T16:50:52;7.50;76.20
49321;DHT22;35817;44.498;0.166;2022-12-07T16:53:19;7.40;76.60
49321;DHT22;35817;44.498;0.166;2022-12-07T16:55:45;7.40;76.90
49321;DHT22;35817;44.498;0.166;2022-12-07T16:58:11;7.30;77.20
49321;DHT22;35817;44.498;0.166;2022-12-07T17:00:37;7.20;77.10
49321;DHT22;35817;44.498;0.166;2022-12-07T17:03:03;7.10;77.00
49321;DHT22;35817;44.498;0.166;2022-12-07T17:05:29;7.10;77.20
49321;DHT22;35817;44.498;0.166;2022-12-07T17:07:55;7.00;77.60
49321;DHT22;35817;44.498;0.166;2022-12-07T17:10:21;7.00;77.70
49321;DHT22;35817;44.498;0.166;2022-12-07T17:12:46;6.90;77.80
49321;DHT22;35817;44.498;0.166;2022-12-07T17:15:12;6.90;77.80
49321;DHT22;35817;44.498;0.166;2022-12-07T17:17:50;6.90;77.80
49321;DHT22;35817;44.498;0.166;2022-12-07T17:20:16;6.90;77.90
49321;DHT22;35817;44.498;0.166;2022-12-07T17:22:42;6.90;78.10
49321;DHT22;35817;44.498;0.166;2022-12-07T17:25:08;7.00;78.30
49321;DHT22;35817;44.498;0.166;2022-12-07T17:27:35;7.10;78.80
49321;DHT22;35817;44.498;0.166;2022-12-07T17:30:00;7.10;79.20
49321;DHT22;35817;44.498;0.166;2022-12-07T17:32:26;7.20;79.30
49321;DHT22;35817;44.498;0.166;2022-12-07T17:34:51;7.30;79.60
49321;DHT22;35817;44.498;0.166;2022-12-07T17:37:17;7.30;79.30
49321;DHT22;35817;44.498;0.166;2022-12-07T17:39:43;7.30;79.60
49321;DHT22;35817;44.498;0.166;2022-12-07T17:42:08;7.30;79.70
49321;DHT22;35817;44.498;0.166;2022-12-07T17:44:53;7.40;79.80
49321;DHT22;35817;44.498;0.166;2022-12-07T17:47:18;7.40;79.80
49321;DHT22;35817;44.498;0.166;2022-12-07T17:49:45;7.40;79.80
49321;DHT22;35817;44.498;0.166;2022-12-07T17:52:12;7.40;79.90
49321;DHT22;35817;44.498;0.166;2022-12-07T17:54:56;7.40;80.10
49321;DHT22;35817;44.498;0.166;2022-12-07T17:57:22;7.40;80.20
49321;DHT22;35817;44.498;0.166;2022-12-07T17:59:48;7.40;80.60
49321;DHT22;35817;44.498;0.166;2022-12-07T18:02:14;7.40;80.70
49321;DHT22;35817;44.498;0.166;2022-12-07T18:04:39;7.30;81.10
49321;DHT22;35817;44.498;0.166;2022-12-07T18:07:07;7.30;81.20
49321;DHT22;35817;44.498;0.166;2022-12-07T18:09:33;7.30;81.40
49321;DHT22;35817;44.498;0.166;2022-12-07T18:11:59;7.30;81.40
49321;DHT22;35817;44.498;0.166;2022-12-07T18:14:25;7.30;81.50
49321;DHT22;35817;44.498;0.166;2022-12-07T18:16:50;7.30;81.60
49321;DHT22;35817;44.498;0.166;2022-12-07T18:19:16;7.30;81.60
49321;DHT22;35817;44.498;0.166;2022-12-07T18:21:42;7.30;81.70
49321;DHT22;35817;44.498;0.166;2022-12-07T18:24:09;7.30;81.60
49321;DHT22;35817;44.498;0.166;2022-12-07T18:26:35;7.30;81.70
49321;DHT22;35817;44.498;0.166;2022-12-07T18:29:02;7.40;82.00
49321;DHT22;35817;44.498;0.166;2022-12-07T18:31:28;7.40;81.90
49321;DHT22;35817;44.498;0.166;2022-12-07T18:33:53;7.40;81.80
49321;DHT22;35817;44.498;0.166;2022-12-07T18:36:20;7.40;81.70
49321;DHT22;35817;44.498;0.166;2022-12-07T18:38:46;7.40;81.80
49321;DHT22;35817;44.498;0.166;2022-12-07T18:41:12;7.40;81.70
49321;DHT22;35817;44.498;0.166;2022-12-07T18:43:38;7.40;82.50
49321;DHT22;35817;44.498;0.166;2022-12-07T18:46:10;7.40;81.80